Time;durP1;ratioP1;P1;durP2;ratioP2;P2;SDS_P1;SDS_P2;PMS_P1;PMS_P2;Temp;Humidity;BMP_temperature;BMP_pressure;BME280_temperature;BME280_humidity;BME280_pressure;Samples;Min_cycle;Max_cycle;Signal;HPM_P1;HPM_P2
2021/09/14 00:01:46;;;;;;;13.18;8.93;;;;;;;;;;5043033;28;20283;-69
2021/09/14 00:04:12;;;;;;;16.35;8.52;;;;;;;;;;5040271;28;20060;-64
2021/09/14 00:06:40;;;;;;;10.43;8.20;;;;;;;;;;5045229;28;20035;-66
2021/09/14 00:09:05;;;;;;;14.30;7.47;;;;;;;;;;5039241;28;20294;-68
2021/09/14 00:11:31;;;;;;;12.25;8.05;;;;;;;;;;5042637;28;20478;-64
2021/09/14 00:13:56;;;;;;;11.75;8.68;;;;;;;;;;5040512;28;20017;-66
2021/09/14 00:16:22;;;;;;;18.17;9.93;;;;;;;;;;5042374;28;20025;-68
2021/09/14 00:18:47;;;;;;;13.53;8.37;;;;;;;;;;5038444;28;20336;-65
2021/09/14 00:21:12;;;;;;;12.77;8.83;;;;;;;;;;5041052;28;20267;-66
2021/09/14 00:23:37;;;;;;;15.50;8.40;;;;;;;;;;5039693;28;20636;-65
2021/09/14 00:26:02;;;;;;;14.20;8.85;;;;;;;;;;5041617;28;20021;-64
2021/09/14 00:28:28;;;;;;;16.83;9.43;;;;;;;;;;5040467;28;20040;-66
2021/09/14 00:30:53;;;;;;;12.77;9.13;;;;;;;;;;5039966;28;20610;-65
2021/09/14 00:33:19;;;;;;;20.40;9.30;;;;;;;;;;5040345;28;20291;-65
2021/09/14 00:35:44;;;;;;;12.32;8.80;;;;;;;;;;5038749;28;20372;-65
2021/09/14 00:38:09;;;;;;;12.87;9.90;;;;;;;;;;5042818;28;20061;-65
2021/09/14 00:40:34;;;;;;;12.53;9.17;;;;;;;;;;5043844;28;21019;-65
2021/09/14 00:43:00;;;;;;;14.13;9.90;;;;;;;;;;5044598;28;20275;-65
2021/09/14 00:45:25;;;;;;;14.20;9.43;;;;;;;;;;5039686;28;20032;-64
2021/09/14 00:47:50;;;;;;;15.77;9.73;;;;;;;;;;5045577;28;20033;-64
2021/09/14 00:50:15;;;;;;;13.93;9.40;;;;;;;;;;5041717;28;20808;-64
2021/09/14 00:52:41;;;;;;;14.18;9.38;;;;;;;;;;5050480;28;20271;-65
2021/09/14 00:55:06;;;;;;;14.55;8.82;;;;;;;;;;5041513;28;20131;-65
2021/09/14 00:57:31;;;;;;;13.85;9.30;;;;;;;;;;5040495;28;20021;-65
2021/09/14 00:59:57;;;;;;;12.33;8.83;;;;;;;;;;5041098;28;20533;-64
2021/09/14 01:02:22;;;;;;;14.25;9.82;;;;;;;;;;5040744;28;20278;-66
2021/09/14 01:04:47;;;;;;;13.90;9.00;;;;;;;;;;5043270;28;21285;-66
2021/09/14 01:07:12;;;;;;;17.38;9.27;;;;;;;;;;5046265;28;20017;-64
2021/09/14 01:09:38;;;;;;;24.52;12.38;;;;;;;;;;5039429;28;20159;-65
2021/09/14 01:12:05;;;;;;;19.45;9.95;;;;;;;;;;5041067;28;20085;-67
2021/09/14 01:14:30;;;;;;;22.10;10.02;;;;;;;;;;5041099;28;20481;-66
2021/09/14 01:16:55;;;;;;;16.65;10.52;;;;;;;;;;5041375;28;20024;-68
2021/09/14 01:19:20;;;;;;;12.82;9.25;;;;;;;;;;5039731;28;20021;-65
2021/09/14 01:21:46;;;;;;;15.32;9.82;;;;;;;;;;5039450;28;20029;-66
2021/09/14 01:24:12;;;;;;;16.08;10.65;;;;;;;;;;5044049;28;20021;-65
2021/09/14 01:26:38;;;;;;;17.05;10.75;;;;;;;;;;5039791;28;21301;-65
2021/09/14 01:29:10;;;;;;;19.30;10.80;;;;;;;;;;5043247;28;20048;-66
2021/09/14 01:31:35;;;;;;;19.40;10.85;;;;;;;;;;5039363;28;20033;-64
2021/09/14 01:34:01;;;;;;;18.95;10.55;;;;;;;;;;5042671;28;20434;-64
2021/09/14 01:36:26;;;;;;;15.38;10.88;;;;;;;;;;5040643;28;20041;-65
2021/09/14 01:38:51;;;;;;;16.05;10.60;;;;;;;;;;5041321;28;20051;-64
2021/09/14 01:41:17;;;;;;;13.23;9.63;;;;;;;;;;5041527;28;20504;-65
2021/09/14 01:43:42;;;;;;;16.73;11.48;;;;;;;;;;5042079;28;20348;-68
2021/09/14 01:46:08;;;;;;;21.15;10.63;;;;;;;;;;5040408;28;20051;-65
2021/09/14 01:48:33;;;;;;;16.00;10.75;;;;;;;;;;5040314;28;20026;-65
2021/09/14 01:50:59;;;;;;;20.13;11.43;;;;;;;;;;5039363;28;20028;-68
2021/09/14 01:53:26;;;;;;;16.77;11.57;;;;;;;;;;5041378;28;20031;-65
2021/09/14 01:55:52;;;;;;;26.63;12.18;;;;;;;;;;5041677;28;20029;-68
2021/09/14 01:58:19;;;;;;;18.02;11.90;;;;;;;;;;5040017;28;20034;-66
2021/09/14 02:00:57;;;;;;;15.38;11.63;;;;;;;;;;5038102;28;20032;-68
2021/09/14 02:33:42;;;;;;;;;;;;;;;;;;4983347;28;20105;-68
2021/09/14 03:00:15;;;;;;;15.48;11.05;;;;;;;;;;5042856;28;20040;-65
2021/09/14 03:02:43;;;;;;;17.97;11.83;;;;;;;;;;5044442;28;20021;-65
2021/09/14 03:05:09;;;;;;;16.55;11.43;;;;;;;;;;5046975;28;20271;-66
2021/09/14 03:07:34;;;;;;;18.77;11.00;;;;;;;;;;5043101;28;20520;-65
2021/09/14 03:09:59;;;;;;;16.08;11.60;;;;;;;;;;5045298;28;20021;-65
2021/09/14 03:12:25;;;;;;;16.37;11.10;;;;;;;;;;5043640;28;20044;-64
2021/09/14 03:14:50;;;;;;;17.13;11.85;;;;;;;;;;5045297;28;20306;-65
2021/09/14 03:17:15;;;;;;;17.33;11.23;;;;;;;;;;5045825;28;20033;-64
2021/09/14 03:19:40;;;;;;;16.87;11.03;;;;;;;;;;5042846;28;20021;-65
2021/09/14 03:22:06;;;;;;;20.90;11.93;;;;;;;;;;5044125;28;20691;-65
2021/09/14 03:24:31;;;;;;;17.10;11.52;;;;;;;;;;5041282;28;20021;-67
2021/09/14 03:26:58;;;;;;;22.13;12.77;;;;;;;;;;5042431;28;20025;-68
2021/09/14 03:29:23;;;;;;;22.85;11.93;;;;;;;;;;5042333;28;20496;-65
2021/09/14 03:31:48;;;;;;;17.95;11.60;;;;;;;;;;5043388;28;20029;-64
2021/09/14 03:34:14;;;;;;;16.35;10.68;;;;;;;;;;5046840;28;20027;-65
2021/09/14 03:36:39;;;;;;;21.73;11.83;;;;;;;;;;5043907;28;20025;-66
2021/09/14 03:39:04;;;;;;;17.70;10.98;;;;;;;;;;5042502;28;20326;-65
2021/09/14 03:41:29;;;;;;;20.60;11.00;;;;;;;;;;5043380;28;20036;-64
2021/09/14 03:43:54;;;;;;;18.05;11.63;;;;;;;;;;5042716;28;20032;-65
2021/09/14 03:46:20;;;;;;;20.13;11.50;;;;;;;;;;5046220;28;20028;-65
2021/09/14 03:48:45;;;;;;;18.17;12.13;;;;;;;;;;5042261;28;21334;-67
2021/09/14 03:51:10;;;;;;;16.52;11.68;;;;;;;;;;5043466;28;20268;-64
2021/09/14 03:53:35;;;;;;;18.60;12.68;;;;;;;;;;5041729;28;20492;-65
2021/09/14 03:56:00;;;;;;;24.87;11.97;;;;;;;;;;5043071;28;20349;-67
2021/09/14 03:58:26;;;;;;;27.20;13.07;;;;;;;;;;5043379;28;20279;-65
2021/09/14 04:00:52;;;;;;;20.20;11.98;;;;;;;;;;5043606;28;20016;-64
2021/09/14 04:03:23;;;;;;;17.70;11.57;;;;;;;;;;5042556;28;20021;-66
2021/09/14 04:06:09;;;;;;;18.85;12.00;;;;;;;;;;5042579;28;20047;-64
2021/09/14 04:08:52;;;;;;;16.48;12.55;;;;;;;;;;5043931;28;20071;-66
2021/09/14 04:11:18;;;;;;;22.15;13.02;;;;;;;;;;5046828;28;20070;-64
2021/09/14 04:13:43;;;;;;;20.25;12.82;;;;;;;;;;5042304;28;20032;-64
2021/09/14 04:16:08;;;;;;;20.10;11.37;;;;;;;;;;5041421;28;20029;-65
2021/09/14 04:18:34;;;;;;;16.80;11.53;;;;;;;;;;5043075;28;20318;-65
2021/09/14 04:20:59;;;;;;;18.98;12.70;;;;;;;;;;5043224;28;20920;-66
2021/09/14 04:23:24;;;;;;;17.60;12.50;;;;;;;;;;5040365;28;20017;-68
2021/09/14 04:25:49;;;;;;;21.93;12.63;;;;;;;;;;5042056;28;20771;-66
2021/09/14 04:28:14;;;;;;;24.75;13.65;;;;;;;;;;5041017;28;20267;-65
2021/09/14 04:30:40;;;;;;;19.90;12.15;;;;;;;;;;5042797;28;20024;-66
2021/09/14 04:33:05;;;;;;;19.85;11.90;;;;;;;;;;5041721;28;20044;-64
2021/09/14 04:35:30;;;;;;;16.65;11.38;;;;;;;;;;5041961;28;20024;-65
2021/09/14 04:37:56;;;;;;;17.38;12.15;;;;;;;;;;5041159;28;20644;-64
2021/09/14 04:40:21;;;;;;;16.55;11.27;;;;;;;;;;5041161;28;20032;-66
2021/09/14 04:42:46;;;;;;;18.83;11.60;;;;;;;;;;5041697;28;20067;-64
2021/09/14 04:45:11;;;;;;;18.03;12.00;;;;;;;;;;5041907;28;20287;-64
2021/09/14 04:47:37;;;;;;;21.20;12.43;;;;;;;;;;5040822;28;20352;-65
2021/09/14 04:50:02;;;;;;;19.38;11.95;;;;;;;;;;5044251;28;20049;-65
2021/09/14 04:52:27;;;;;;;17.50;12.52;;;;;;;;;;5042201;28;20049;-70
2021/09/14 04:54:52;;;;;;;20.42;11.23;;;;;;;;;;5042016;28;20036;-65
2021/09/14 04:57:18;;;;;;;22.27;12.10;;;;;;;;;;5039990;28;20064;-67
2021/09/14 04:59:43;;;;;;;17.87;12.47;;;;;;;;;;5047058;23;20315;-87
2021/09/14 05:02:08;;;;;;;20.70;11.93;;;;;;;;;;5045260;28;20275;-87
2021/09/14 05:04:33;;;;;;;20.20;11.80;;;;;;;;;;5043954;28;20035;-87
2021/09/14 05:06:58;;;;;;;25.15;11.27;;;;;;;;;;5039469;28;20038;-88
2021/09/14 05:09:24;;;;;;;18.45;11.18;;;;;;;;;;5039224;28;20034;-88
2021/09/14 05:11:50;;;;;;;20.00;11.65;;;;;;;;;;5039889;28;20032;-87
2021/09/14 05:14:15;;;;;;;31.52;12.60;;;;;;;;;;5043310;28;20017;-88
2021/09/14 05:16:40;;;;;;;22.33;12.32;;;;;;;;;;5038014;28;20032;-88
2021/09/14 05:19:08;;;;;;;19.60;11.82;;;;;;;;;;5043996;28;20020;-88
2021/09/14 05:21:33;;;;;;;25.95;12.27;;;;;;;;;;5035045;28;20025;-88
2021/09/14 05:23:58;;;;;;;22.45;12.68;;;;;;;;;;5031914;28;20036;-88
2021/09/14 05:26:26;;;;;;;29.40;12.90;;;;;;;;;;5039152;28;20093;-89
2021/09/14 05:28:51;;;;;;;17.23;11.52;;;;;;;;;;5034151;28;20040;-88
2021/09/14 05:31:16;;;;;;;19.58;12.18;;;;;;;;;;5034842;28;20429;-88
2021/09/14 05:33:42;;;;;;;23.92;13.00;;;;;;;;;;5037828;28;20105;-88
2021/09/14 05:36:08;;;;;;;20.42;13.40;;;;;;;;;;5033214;28;20392;-88
2021/09/14 05:38:33;;;;;;;20.48;13.27;;;;;;;;;;5038328;28;20020;-89
2021/09/14 05:40:59;;;;;;;23.58;13.23;;;;;;;;;;5033512;28;20285;-89
2021/09/14 05:43:25;;;;;;;22.55;12.90;;;;;;;;;;5045814;28;20056;-89
2021/09/14 05:45:54;;;;;;;23.40;14.68;;;;;;;;;;5044128;28;20116;-89
2021/09/14 05:48:19;;;;;;;28.45;13.80;;;;;;;;;;5045540;28;20117;-88
2021/09/14 05:50:45;;;;;;;30.15;15.07;;;;;;;;;;5044638;28;20108;-89
2021/09/14 05:53:10;;;;;;;23.13;13.15;;;;;;;;;;5044537;28;20025;-89
2021/09/14 05:55:37;;;;;;;26.45;13.70;;;;;;;;;;5046487;28;20025;-89
2021/09/14 05:58:02;;;;;;;27.10;14.30;;;;;;;;;;5046346;28;20017;-89
2021/09/14 06:00:31;;;;;;;23.48;14.13;;;;;;;;;;5041138;28;20025;-88
2021/09/14 06:03:08;;;;;;;27.67;14.57;;;;;;;;;;5042289;28;20555;-88
2021/09/14 06:05:45;;;;;;;20.00;11.25;;;;;;;;;;5046258;28;20033;-87
2021/09/14 06:08:13;;;;;;;18.70;11.85;;;;;;;;;;5049584;28;20021;-87
2021/09/14 06:10:39;;;;;;;16.85;11.73;;;;;;;;;;5048896;28;20025;-86
2021/09/14 06:13:04;;;;;;;20.67;13.13;;;;;;;;;;5048486;28;20079;-87
2021/09/14 06:15:30;;;;;;;20.88;12.35;;;;;;;;;;5044574;28;20039;-86
2021/09/14 06:17:55;;;;;;;20.08;12.02;;;;;;;;;;5052119;28;20021;-85
2021/09/14 06:20:20;;;;;;;29.07;13.10;;;;;;;;;;5053687;28;20067;-85
2021/09/14 06:22:45;;;;;;;22.20;13.35;;;;;;;;;;5052374;28;20748;-86
2021/09/14 06:25:10;;;;;;;26.70;12.88;;;;;;;;;;5052352;28;20108;-86
2021/09/14 06:27:36;;;;;;;22.60;11.55;;;;;;;;;;5053350;28;20499;-86
2021/09/14 06:30:01;;;;;;;20.47;11.83;;;;;;;;;;5038105;28;20446;-85
2021/09/14 06:32:26;;;;;;;16.60;11.00;;;;;;;;;;5051591;28;20283;-86
2021/09/14 06:34:51;;;;;;;21.77;12.20;;;;;;;;;;5064147;22;20473;-69
2021/09/14 06:37:17;;;;;;;17.67;11.45;;;;;;;;;;5045560;28;20275;-69
2021/09/14 06:39:42;;;;;;;15.55;11.27;;;;;;;;;;5048429;28;20017;-69
2021/09/14 06:42:08;;;;;;;22.00;12.00;;;;;;;;;;5039846;28;20087;-69
2021/09/14 06:44:33;;;;;;;23.70;11.88;;;;;;;;;;5032337;28;20514;-69
2021/09/14 06:46:58;;;;;;;17.17;11.00;;;;;;;;;;5033321;28;20159;-69
2021/09/14 06:49:24;;;;;;;16.50;9.80;;;;;;;;;;5036914;28;20048;-69
2021/09/14 06:51:49;;;;;;;13.60;8.73;;;;;;;;;;5031529;28;20131;-69
2021/09/14 06:54:14;;;;;;;14.75;8.88;;;;;;;;;;5030578;28;20034;-69
2021/09/14 06:56:39;;;;;;;12.20;8.57;;;;;;;;;;5032961;28;20059;-70
2021/09/14 06:59:04;;;;;;;16.07;10.57;;;;;;;;;;5032999;28;20025;-69
2021/09/14 07:01:30;;;;;;;15.83;9.40;;;;;;;;;;5032981;28;20635;-69
2021/09/14 07:03:55;;;;;;;15.90;8.60;;;;;;;;;;5033294;28;20267;-70
2021/09/14 07:06:21;;;;;;;15.82;9.10;;;;;;;;;;5040113;28;20017;-69
2021/09/14 07:08:49;;;;;;;14.90;8.00;;;;;;;;;;5042019;28;20489;-70
2021/09/14 07:11:14;;;;;;;11.10;7.35;;;;;;;;;;5032483;28;20831;-70
2021/09/14 07:13:39;;;;;;;11.80;7.55;;;;;;;;;;5033200;28;20104;-70
2021/09/14 07:16:04;;;;;;;9.63;6.37;;;;;;;;;;5031155;28;20079;-70
2021/09/14 07:18:29;;;;;;;11.73;7.10;;;;;;;;;;5032141;28;20253;-70
2021/09/14 07:20:55;;;;;;;12.63;7.07;;;;;;;;;;5036673;28;20268;-70
2021/09/14 07:23:21;;;;;;;12.87;6.83;;;;;;;;;;5035045;28;20063;-70
2021/09/14 07:25:46;;;;;;;11.60;6.25;;;;;;;;;;5028500;28;20271;-70
2021/09/14 07:28:11;;;;;;;17.05;7.55;;;;;;;;;;5032165;28;20478;-70
2021/09/14 07:30:37;;;;;;;14.68;8.90;;;;;;;;;;5032654;28;20022;-70
2021/09/14 07:33:03;;;;;;;11.65;6.97;;;;;;;;;;5035095;28;20522;-70
2021/09/14 07:35:30;;;;;;;13.05;7.30;;;;;;;;;;5047850;28;20072;-70
2021/09/14 07:37:55;;;;;;;9.68;7.13;;;;;;;;;;5023860;28;20378;-70
2021/09/14 07:40:20;;;;;;;13.77;6.53;;;;;;;;;;5031400;28;20022;-70
2021/09/14 07:42:46;;;;;;;9.10;6.72;;;;;;;;;;5031844;28;20347;-70
2021/09/14 07:45:11;;;;;;;10.32;6.72;;;;;;;;;;5032277;28;20048;-70
2021/09/14 07:47:36;;;;;;;7.40;5.93;;;;;;;;;;5031600;28;20036;-70
2021/09/14 07:50:02;;;;;;;9.87;6.07;;;;;;;;;;5047084;28;20033;-70
2021/09/14 07:52:27;;;;;;;7.68;6.03;;;;;;;;;;5040349;28;20266;-70
2021/09/14 07:54:52;;;;;;;9.57;5.25;;;;;;;;;;5044664;28;20025;-70
2021/09/14 07:57:18;;;;;;;9.75;5.65;;;;;;;;;;5031748;28;20535;-70
2021/09/14 07:59:43;;;;;;;10.90;6.00;;;;;;;;;;5032241;28;20025;-70
2021/09/14 08:02:08;;;;;;;17.03;7.90;;;;;;;;;;5034283;28;20814;-70
2021/09/14 08:04:33;;;;;;;9.35;5.65;;;;;;;;;;5031291;28;20326;-70
2021/09/14 08:06:59;;;;;;;10.20;5.60;;;;;;;;;;5031462;28;20112;-70
2021/09/14 08:09:28;;;;;;;8.52;5.50;;;;;;;;;;5031314;28;20017;-70
2021/09/14 08:11:53;;;;;;;10.60;5.45;;;;;;;;;;5030655;28;20444;-70
2021/09/14 08:14:18;;;;;;;7.00;5.13;;;;;;;;;;5033265;28;20021;-70
2021/09/14 08:16:43;;;;;;;8.27;5.28;;;;;;;;;;5031221;28;20292;-71
2021/09/14 08:19:08;;;;;;;9.43;5.43;;;;;;;;;;5030704;28;20024;-71
2021/09/14 08:21:34;;;;;;;5.80;4.33;;;;;;;;;;5030888;28;20036;-71
2021/09/14 08:23:59;;;;;;;5.88;4.47;;;;;;;;;;5031122;28;20410;-71
2021/09/14 08:26:24;;;;;;;14.40;4.78;;;;;;;;;;5031478;28;20108;-71
2021/09/14 08:28:49;;;;;;;13.57;4.50;;;;;;;;;;5037411;28;20029;-71
2021/09/14 08:31:14;;;;;;;5.97;4.23;;;;;;;;;;5031560;28;20100;-71
2021/09/14 08:33:40;;;;;;;9.17;3.93;;;;;;;;;;5030669;28;20346;-70
2021/09/14 08:36:06;;;;;;;7.93;3.88;;;;;;;;;;5031273;28;20029;-71
2021/09/14 08:38:32;;;;;;;5.93;3.75;;;;;;;;;;5031773;28;20022;-70
2021/09/14 08:40:57;;;;;;;7.88;3.92;;;;;;;;;;5030667;28;20015;-71
2021/09/14 08:43:22;;;;;;;4.88;3.25;;;;;;;;;;5030345;28;20037;-71
2021/09/14 08:45:48;;;;;;;5.83;3.70;;;;;;;;;;5030015;28;20075;-71
2021/09/14 08:48:14;;;;;;;7.25;4.30;;;;;;;;;;5031162;28;20287;-71
2021/09/14 08:50:39;;;;;;;4.80;3.75;;;;;;;;;;5031243;28;20051;-70
2021/09/14 08:53:05;;;;;;;8.47;4.07;;;;;;;;;;5030137;28;20710;-71
2021/09/14 08:55:31;;;;;;;7.53;4.03;;;;;;;;;;5030397;28;20271;-70
2021/09/14 08:57:56;;;;;;;5.90;3.92;;;;;;;;;;5031114;28;20299;-71
2021/09/14 09:00:34;;;;;;;9.13;3.80;;;;;;;;;;5031030;28;20365;-70
2021/09/14 09:03:00;;;;;;;5.85;3.90;;;;;;;;;;5029386;28;20287;-71
2021/09/14 09:05:29;;;;;;;7.73;3.47;;;;;;;;;;5030983;28;20130;-71
2021/09/14 09:07:54;;;;;;;6.15;3.88;;;;;;;;;;5030627;28;20647;-71
2021/09/14 09:10:19;;;;;;;9.10;3.67;;;;;;;;;;5030561;28;20013;-71
2021/09/14 09:12:46;;;;;;;7.10;3.97;;;;;;;;;;5031271;28;20273;-70
2021/09/14 09:15:28;;;;;;;6.63;3.60;;;;;;;;;;5050820;28;20486;-71
2021/09/14 09:18:04;;;;;;;9.13;3.47;;;;;;;;;;5031163;28;20057;-70
2021/09/14 09:20:30;;;;;;;7.70;3.33;;;;;;;;;;5030672;28;20079;-70
2021/09/14 09:23:02;;;;;;;5.30;3.22;;;;;;;;;;5029116;28;20088;-71
2021/09/14 09:25:28;;;;;;;5.75;3.70;;;;;;;;;;5029690;28;20048;-71
2021/09/14 09:28:03;;;;;;;5.53;3.70;;;;;;;;;;5029951;28;20028;-70
2021/09/14 09:30:33;;;;;;;5.43;3.10;;;;;;;;;;5046224;28;20033;-71
2021/09/14 09:33:02;;;;;;;10.32;2.67;;;;;;;;;;5030167;28;20055;-70
2021/09/14 09:35:29;;;;;;;3.70;2.80;;;;;;;;;;5030269;28;20484;-70
2021/09/14 09:37:54;;;;;;;8.27;3.22;;;;;;;;;;5029224;28;20056;-70
2021/09/14 09:40:27;;;;;;;5.47;3.28;;;;;;;;;;5029341;28;20064;-70
2021/09/14 09:42:52;;;;;;;5.75;3.33;;;;;;;;;;5033739;28;20035;-70
2021/09/14 09:45:18;;;;;;;5.38;3.20;;;;;;;;;;5031303;28;20050;-70
2021/09/14 09:47:45;;;;;;;8.90;3.00;;;;;;;;;;5041104;28;20025;-71
2021/09/14 09:50:12;;;;;;;9.18;3.35;;;;;;;;;;5029840;28;20604;-71
2021/09/14 09:52:37;;;;;;;7.43;2.97;;;;;;;;;;5029875;28;20080;-71
2021/09/14 09:55:02;;;;;;;6.22;3.22;;;;;;;;;;5029870;28;20094;-71
2021/09/14 09:57:27;;;;;;;6.65;3.45;;;;;;;;;;5030424;28;20030;-70
2021/09/14 09:59:53;;;;;;;6.25;3.60;;;;;;;;;;5025584;28;20021;-71
2021/09/14 10:02:21;;;;;;;8.20;3.33;;;;;;;;;;5029758;28;20183;-71
2021/09/14 10:04:50;;;;;;;4.75;2.72;;;;;;;;;;5029584;28;20049;-70
2021/09/14 10:07:15;;;;;;;7.32;3.10;;;;;;;;;;5029021;28;20426;-70
2021/09/14 10:09:53;;;;;;;5.85;3.38;;;;;;;;;;5029657;28;20398;-70
2021/09/14 10:12:28;;;;;;;5.65;2.60;;;;;;;;;;5024581;28;20039;-70
2021/09/14 10:14:56;;;;;;;6.50;3.08;;;;;;;;;;5030625;28;20017;-70
2021/09/14 10:17:21;;;;;;;5.25;2.80;;;;;;;;;;5029986;28;20029;-71
2021/09/14 10:19:47;;;;;;;4.73;3.03;;;;;;;;;;5029262;28;20091;-70
2021/09/14 10:22:20;;;;;;;6.97;3.73;;;;;;;;;;5029199;28;20036;-70
2021/09/14 10:24:50;;;;;;;6.40;3.15;;;;;;;;;;5036018;28;20741;-70
2021/09/14 10:27:15;;;;;;;5.38;2.97;;;;;;;;;;5029174;28;20029;-70
2021/09/14 10:29:41;;;;;;;7.67;2.63;;;;;;;;;;5030149;28;20390;-70
2021/09/14 10:32:08;;;;;;;6.68;3.17;;;;;;;;;;5028488;28;20307;-70
2021/09/14 10:34:33;;;;;;;5.65;1.88;;;;;;;;;;5022189;28;20049;-70
2021/09/14 10:37:07;;;;;;;5.60;3.30;;;;;;;;;;5028679;28;20072;-71
2021/09/14 10:39:36;;;;;;;4.00;3.25;;;;;;;;;;5029857;28;20013;-70
2021/09/14 10:42:18;;;;;;;11.43;2.85;;;;;;;;;;5029986;28;20048;-70
2021/09/14 10:44:44;;;;;;;3.80;3.08;;;;;;;;;;5029792;28;20482;-70
2021/09/14 10:47:11;;;;;;;12.90;3.88;;;;;;;;;;5029302;28;20492;-70
2021/09/14 10:49:45;;;;;;;20.05;3.20;;;;;;;;;;5029281;28;20028;-71
2021/09/14 10:52:11;;;;;;;4.90;2.75;;;;;;;;;;5030504;28;20107;-70
2021/09/14 10:54:43;;;;;;;13.00;3.63;;;;;;;;;;5037308;28;20469;-71
2021/09/14 10:57:09;;;;;;;7.30;3.13;;;;;;;;;;5032270;28;20030;-71
2021/09/14 10:59:34;;;;;;;4.35;3.08;;;;;;;;;;5105069;23;20032;-65
2021/09/14 11:01:59;;;;;;;5.20;3.13;;;;;;;;;;5049702;28;20033;-67
2021/09/14 11:04:27;;;;;;;6.30;3.30;;;;;;;;;;5052940;28;20070;-66
2021/09/14 11:06:52;;;;;;;11.00;3.20;;;;;;;;;;5053416;28;20317;-66
2021/09/14 11:09:18;;;;;;;4.65;3.55;;;;;;;;;;5052594;28;20181;-67
2021/09/14 11:11:48;;;;;;;9.70;3.55;;;;;;;;;;5052466;28;20025;-65
2021/09/14 11:14:14;;;;;;;7.60;3.28;;;;;;;;;;5053023;28;20175;-66
2021/09/14 11:16:39;;;;;;;6.20;3.95;;;;;;;;;;5052826;28;20447;-66
2021/09/14 11:19:04;;;;;;;9.60;3.80;;;;;;;;;;5052479;28;20020;-66
2021/09/14 11:21:29;;;;;;;4.00;3.60;;;;;;;;;;5052463;28;20540;-65
2021/09/14 11:23:54;;;;;;;5.73;3.70;;;;;;;;;;5051730;28;20305;-66
2021/09/14 11:26:20;;;;;;;4.73;3.20;;;;;;;;;;5051953;28;20024;-65
2021/09/14 11:28:53;;;;;;;7.63;3.63;;;;;;;;;;5052444;28;20497;-66
2021/09/14 11:31:18;;;;;;;4.72;3.33;;;;;;;;;;5052249;28;20118;-65
2021/09/14 11:33:44;;;;;;;10.98;4.57;;;;;;;;;;5050251;28;20524;-66
2021/09/14 11:36:09;;;;;;;9.32;3.80;;;;;;;;;;5052153;28;20544;-66
2021/09/14 11:38:35;;;;;;;4.38;3.08;;;;;;;;;;5051414;28;20353;-66
2021/09/14 11:41:01;;;;;;;10.30;3.33;;;;;;;;;;5050671;28;20485;-65
2021/09/14 11:43:28;;;;;;;4.97;3.50;;;;;;;;;;5040300;28;20052;-64
2021/09/14 11:45:54;;;;;;;3.50;2.35;;;;;;;;;;5051811;28;20052;-66
2021/09/14 11:48:24;;;;;;;6.60;3.13;;;;;;;;;;5052630;28;20110;-66
2021/09/14 11:51:01;;;;;;;5.90;3.53;;;;;;;;;;5052029;28;20028;-66
2021/09/14 11:53:26;;;;;;;6.55;3.88;;;;;;;;;;5046595;28;20112;-66
2021/09/14 11:55:52;;;;;;;11.95;3.55;;;;;;;;;;5051604;28;20112;-66
2021/09/14 11:58:36;;;;;;;9.23;3.73;;;;;;;;;;5051798;28;20013;-67
2021/09/14 12:01:08;;;;;;;5.43;3.20;;;;;;;;;;5050124;28;20279;-66
2021/09/14 12:03:43;;;;;;;7.03;3.03;;;;;;;;;;5050350;28;20363;-65
2021/09/14 12:06:08;;;;;;;7.60;2.95;;;;;;;;;;5051393;28;20195;-66
2021/09/14 12:08:34;;;;;;;10.32;3.25;;;;;;;;;;5050820;28;20119;-65
2021/09/14 12:11:00;;;;;;;6.50;3.78;;;;;;;;;;5050912;28;20021;-65
2021/09/14 12:13:26;;;;;;;8.15;3.08;;;;;;;;;;5050484;28;20021;-65
2021/09/14 12:15:58;;;;;;;5.80;3.40;;;;;;;;;;5049955;28;20032;-65
2021/09/14 12:18:24;;;;;;;6.35;3.22;;;;;;;;;;5051458;28;20025;-67
2021/09/14 12:20:49;;;;;;;5.75;3.58;;;;;;;;;;5051324;28;20032;-67
2021/09/14 12:23:14;;;;;;;9.85;3.47;;;;;;;;;;5050376;28;20112;-67
2021/09/14 12:25:40;;;;;;;6.03;2.97;;;;;;;;;;5050185;28;20098;-67
2021/09/14 12:28:06;;;;;;;5.90;2.22;;;;;;;;;;5050303;28;20103;-67
2021/09/14 12:30:31;;;;;;;3.55;2.47;;;;;;;;;;5051302;28;20024;-66
2021/09/14 12:32:56;;;;;;;11.63;3.72;;;;;;;;;;5050914;28;20116;-67
2021/09/14 12:35:21;;;;;;;5.13;3.28;;;;;;;;;;5048879;28;20480;-67
2021/09/14 12:37:47;;;;;;;4.53;3.13;;;;;;;;;;5037734;28;20385;-67
2021/09/14 12:40:12;;;;;;;4.03;3.30;;;;;;;;;;5051344;28;20108;-67
2021/09/14 12:42:37;;;;;;;3.88;2.75;;;;;;;;;;5050545;28;20024;-67
2021/09/14 12:45:03;;;;;;;8.93;3.10;;;;;;;;;;5050900;28;20032;-67
2021/09/14 12:47:28;;;;;;;4.38;3.30;;;;;;;;;;5051137;28;20108;-66
2021/09/14 12:49:53;;;;;;;4.87;3.60;;;;;;;;;;5050452;28;20137;-67
2021/09/14 12:52:18;;;;;;;4.33;3.47;;;;;;;;;;5049986;28;20703;-67
2021/09/14 12:54:43;;;;;;;5.53;3.50;;;;;;;;;;5050676;28;20040;-67
2021/09/14 12:57:08;;;;;;;5.73;3.20;;;;;;;;;;5050392;28;20028;-67
2021/09/14 12:59:34;;;;;;;4.53;3.60;;;;;;;;;;5050525;28;20044;-68
2021/09/14 13:01:59;;;;;;;8.47;3.57;;;;;;;;;;5050536;28;20028;-67
2021/09/14 13:04:24;;;;;;;8.40;3.20;;;;;;;;;;5050327;28;20115;-67
2021/09/14 13:06:50;;;;;;;4.03;3.00;;;;;;;;;;5050078;28;20298;-67
2021/09/14 13:09:15;;;;;;;5.68;3.35;;;;;;;;;;5050621;28;20154;-66
2021/09/14 13:11:40;;;;;;;7.10;3.70;;;;;;;;;;5050243;28;20107;-66
2021/09/14 13:16:49;;;;;;;5.45;3.03;;;;;;;;;;5049441;28;20028;-67
2021/09/14 13:19:15;;;;;;;5.80;3.77;;;;;;;;;;5050485;28;20017;-67
2021/09/14 13:21:40;;;;;;;21.03;4.30;;;;;;;;;;5049783;28;20498;-67
2021/09/14 13:24:05;;;;;;;7.70;3.60;;;;;;;;;;5049704;28;20032;-67
2021/09/14 13:26:30;;;;;;;4.80;3.33;;;;;;;;;;5050082;28;20274;-67
2021/09/14 13:28:55;;;;;;;6.83;3.53;;;;;;;;;;5049871;28;20021;-67
2021/09/14 13:31:21;;;;;;;6.37;3.60;;;;;;;;;;5046885;28;20723;-67
2021/09/14 13:33:46;;;;;;;6.97;3.92;;;;;;;;;;5050149;28;20021;-67
2021/09/14 13:36:11;;;;;;;8.02;3.13;;;;;;;;;;5049369;28;20060;-66
2021/09/14 13:38:37;;;;;;;8.55;3.50;;;;;;;;;;5050100;28;20025;-67
2021/09/14 13:41:11;;;;;;;11.15;3.50;;;;;;;;;;5049633;28;20530;-67
2021/09/14 13:46:11;;;;;;;9.95;4.30;;;;;;;;;;5045647;28;20059;-67
2021/09/14 13:48:41;;;;;;;6.88;3.53;;;;;;;;;;5042544;28;20496;-67
2021/09/14 13:51:06;;;;;;;5.78;3.75;;;;;;;;;;5048804;28;20025;-67
2021/09/14 13:53:31;;;;;;;8.02;3.63;;;;;;;;;;5048705;28;20492;-67
2021/09/14 13:55:57;;;;;;;6.15;3.67;;;;;;;;;;5049355;28;20055;-67
2021/09/14 13:58:22;;;;;;;8.05;3.75;;;;;;;;;;5045408;28;20018;-67
2021/09/14 14:00:47;;;;;;;6.73;3.30;;;;;;;;;;5039019;28;20556;-67
2021/09/14 14:03:12;;;;;;;5.38;3.67;;;;;;;;;;5049019;28;20025;-67
2021/09/14 14:05:37;;;;;;;6.53;3.80;;;;;;;;;;5049582;28;20029;-67
2021/09/14 14:08:03;;;;;;;8.67;3.37;;;;;;;;;;5049359;28;20133;-67
2021/09/14 14:10:28;;;;;;;7.93;3.88;;;;;;;;;;5049154;28;20725;-64
2021/09/14 14:12:53;;;;;;;7.53;3.77;;;;;;;;;;5048760;28;20013;-67
2021/09/14 14:15:19;;;;;;;6.80;3.85;;;;;;;;;;5049572;28;20025;-67
2021/09/14 14:17:44;;;;;;;9.38;4.55;;;;;;;;;;5049078;28;20032;-67
2021/09/14 14:20:10;;;;;;;9.80;3.47;;;;;;;;;;5048649;28;20571;-67
2021/09/14 14:22:35;;;;;;;6.68;3.65;;;;;;;;;;5048850;28;20314;-67
2021/09/14 14:25:00;;;;;;;9.47;4.07;;;;;;;;;;5049967;28;20045;-67
2021/09/14 14:27:25;;;;;;;8.67;3.87;;;;;;;;;;5051398;28;20496;-67
2021/09/14 14:29:51;;;;;;;7.88;3.75;;;;;;;;;;5053260;28;20071;-68
2021/09/14 14:32:16;;;;;;;5.22;3.80;;;;;;;;;;5052735;28;20029;-67
2021/09/14 14:34:41;;;;;;;7.80;4.03;;;;;;;;;;5052990;28;20025;-66
2021/09/14 14:37:06;;;;;;;4.93;3.83;;;;;;;;;;5053414;28;20279;-67
2021/09/14 14:39:32;;;;;;;8.60;3.87;;;;;;;;;;5042050;28;20036;-66
2021/09/14 14:41:57;;;;;;;6.05;2.63;;;;;;;;;;5033888;28;20343;-68
2021/09/14 14:44:22;;;;;;;4.50;3.60;;;;;;;;;;5043052;28;20021;-66
2021/09/14 14:46:47;;;;;;;4.63;3.57;;;;;;;;;;5052815;28;20021;-68
2021/09/14 14:49:12;;;;;;;9.23;3.47;;;;;;;;;;5050042;28;20057;-65
2021/09/14 14:51:41;;;;;;;8.48;4.35;;;;;;;;;;5049316;28;20028;-68
2021/09/14 14:54:06;;;;;;;3.88;3.47;;;;;;;;;;5051673;28;20033;-67
2021/09/14 14:56:31;;;;;;;7.32;3.50;;;;;;;;;;5051854;28;20499;-67
2021/09/14 14:58:56;;;;;;;6.55;3.55;;;;;;;;;;5051835;28;20013;-67
2021/09/14 15:01:22;;;;;;;4.23;3.33;;;;;;;;;;5052162;28;20055;-67
2021/09/14 15:03:47;;;;;;;5.37;3.13;;;;;;;;;;5050486;28;20462;-67
2021/09/14 15:06:12;;;;;;;8.70;3.70;;;;;;;;;;5049361;28;20147;-67
2021/09/14 15:08:37;;;;;;;7.57;3.60;;;;;;;;;;5052517;28;20635;-67
2021/09/14 15:11:03;;;;;;;4.77;3.07;;;;;;;;;;5052834;28;20033;-67
2021/09/14 15:13:28;;;;;;;6.10;3.38;;;;;;;;;;5052213;28;20272;-67
2021/09/14 15:15:54;;;;;;;6.50;3.67;;;;;;;;;;5052203;28;20025;-67
2021/09/14 15:18:19;;;;;;;11.57;4.05;;;;;;;;;;5047466;28;20021;-67
2021/09/14 15:20:44;;;;;;;6.20;3.55;;;;;;;;;;5049818;28;20013;-67
2021/09/14 15:23:09;;;;;;;5.30;3.25;;;;;;;;;;5051908;28;20024;-67
2021/09/14 15:25:35;;;;;;;6.27;3.83;;;;;;;;;;5052229;28;20479;-66
2021/09/14 15:28:00;;;;;;;5.70;3.75;;;;;;;;;;5050585;28;20275;-67